sensor_id;sensor_type;location;lat;lon;timestamp;temperature;humidity
23081;DHT22;11708;50.570;8.532;2023-03-04T00:01:58;0.00;99.90
23081;DHT22;11708;50.570;8.532;2023-03-04T00:04:24;0.00;99.90
23081;DHT22;11708;50.570;8.532;2023-03-04T00:06:49;0.00;99.90
23081;DHT22;11708;50.570;8.532;2023-03-04T00:09:15;0.00;99.90
23081;DHT22;11708;50.570;8.532;2023-03-04T00:11:40;0.00;99.90
23081;DHT22;11708;50.570;8.532;2023-03-04T00:14:06;0.00;99.90
23081;DHT22;11708;50.570;8.532;2023-03-04T00:16:31;0.00;99.90
23081;DHT22;11708;50.570;8.532;2023-03-04T00:18:57;0.00;99.90
23081;DHT22;11708;50.570;8.532;2023-03-04T00:21:23;0.00;99.90
23081;DHT22;11708;50.570;8.532;2023-03-04T00:23:49;0.00;99.90
23081;DHT22;11708;50.570;8.532;2023-03-04T00:26:16;0.00;99.90
23081;DHT22;11708;50.570;8.532;2023-03-04T00:28:42;0.10;99.90
23081;DHT22;11708;50.570;8.532;2023-03-04T00:31:08;0.10;99.90
23081;DHT22;11708;50.570;8.532;2023-03-04T00:33:34;0.10;99.90
23081;DHT22;11708;50.570;8.532;2023-03-04T00:36:00;0.00;99.90
23081;DHT22;11708;50.570;8.532;2023-03-04T00:38:26;0.10;99.90
23081;DHT22;11708;50.570;8.532;2023-03-04T00:40:52;0.10;99.90
23081;DHT22;11708;50.570;8.532;2023-03-04T00:43:17;0.20;99.90
23081;DHT22;11708;50.570;8.532;2023-03-04T00:45:43;0.20;99.90
23081;DHT22;11708;50.570;8.532;2023-03-04T00:48:09;0.20;99.90
23081;DHT22;11708;50.570;8.532;2023-03-04T00:50:34;0.30;99.90
23081;DHT22;11708;50.570;8.532;2023-03-04T00:53:00;0.40;99.90
23081;DHT22;11708;50.570;8.532;2023-03-04T00:55:26;0.40;99.90
23081;DHT22;11708;50.570;8.532;2023-03-04T00:57:51;0.40;99.90
23081;DHT22;11708;50.570;8.532;2023-03-04T01:00:17;0.40;99.90
23081;DHT22;11708;50.570;8.532;2023-03-04T01:02:43;0.50;99.90
23081;DHT22;11708;50.570;8.532;2023-03-04T01:05:09;0.50;99.90
23081;DHT22;11708;50.570;8.532;2023-03-04T01:07:35;0.50;99.90
23081;DHT22;11708;50.570;8.532;2023-03-04T01:10:00;0.50;99.90
23081;DHT22;11708;50.570;8.532;2023-03-04T01:12:26;0.50;99.90
23081;DHT22;11708;50.570;8.532;2023-03-04T01:14:52;0.50;99.90
23081;DHT22;11708;50.570;8.532;2023-03-04T01:17:18;0.50;99.90
23081;DHT22;11708;50.570;8.532;2023-03-04T01:19:44;0.50;99.90
23081;DHT22;11708;50.570;8.532;2023-03-04T01:22:10;0.50;99.90
23081;DHT22;11708;50.570;8.532;2023-03-04T01:24:36;0.60;99.90
23081;DHT22;11708;50.570;8.532;2023-03-04T01:27:02;0.60;99.90
23081;DHT22;11708;50.570;8.532;2023-03-04T01:29:27;0.60;99.90
23081;DHT22;11708;50.570;8.532;2023-03-04T01:31:53;0.70;99.90
23081;DHT22;11708;50.570;8.532;2023-03-04T01:34:18;0.70;99.90
23081;DHT22;11708;50.570;8.532;2023-03-04T01:36:44;0.70;99.90
23081;DHT22;11708;50.570;8.532;2023-03-04T01:39:09;0.70;99.90
23081;DHT22;11708;50.570;8.532;2023-03-04T01:41:35;0.70;99.90
23081;DHT22;11708;50.570;8.532;2023-03-04T01:44:01;0.70;99.90
23081;DHT22;11708;50.570;8.532;2023-03-04T01:46:27;0.70;99.90
23081;DHT22;11708;50.570;8.532;2023-03-04T01:48:53;0.70;99.90
23081;DHT22;11708;50.570;8.532;2023-03-04T01:51:20;0.70;99.90
23081;DHT22;11708;50.570;8.532;2023-03-04T01:53:47;0.70;99.90
23081;DHT22;11708;50.570;8.532;2023-03-04T01:56:23;0.80;99.90
23081;DHT22;11708;50.570;8.532;2023-03-04T01:59:11;0.70;99.90
23081;DHT22;11708;50.570;8.532;2023-03-04T02:01:37;0.80;99.90
23081;DHT22;11708;50.570;8.532;2023-03-04T02:04:03;0.80;99.90
23081;DHT22;11708;50.570;8.532;2023-03-04T02:06:29;0.80;99.90
23081;DHT22;11708;50.570;8.532;2023-03-04T02:08:55;0.80;99.90
23081;DHT22;11708;50.570;8.532;2023-03-04T02:11:21;0.80;99.90
23081;DHT22;11708;50.570;8.532;2023-03-04T02:13:47;0.80;99.90
23081;DHT22;11708;50.570;8.532;2023-03-04T02:16:12;0.90;99.90
23081;DHT22;11708;50.570;8.532;2023-03-04T02:18:38;0.80;99.90
23081;DHT22;11708;50.570;8.532;2023-03-04T02:23:56;0.90;99.90
23081;DHT22;11708;50.570;8.532;2023-03-04T02:26:25;0.90;99.90
23081;DHT22;11708;50.570;8.532;2023-03-04T02:28:53;1.00;99.90
23081;DHT22;11708;50.570;8.532;2023-03-04T02:31:21;1.00;99.90
23081;DHT22;11708;50.570;8.532;2023-03-04T02:33:47;1.00;99.90
23081;DHT22;11708;50.570;8.532;2023-03-04T02:36:13;0.90;99.90
23081;DHT22;11708;50.570;8.532;2023-03-04T02:38:38;1.00;99.90
23081;DHT22;11708;50.570;8.532;2023-03-04T02:41:04;1.00;99.90
23081;DHT22;11708;50.570;8.532;2023-03-04T02:43:30;1.00;99.90
23081;DHT22;11708;50.570;8.532;2023-03-04T02:45:56;1.00;99.90
23081;DHT22;11708;50.570;8.532;2023-03-04T02:48:22;1.10;99.90
23081;DHT22;11708;50.570;8.532;2023-03-04T02:50:52;1.10;99.90
23081;DHT22;11708;50.570;8.532;2023-03-04T02:53:19;1.10;99.90
23081;DHT22;11708;50.570;8.532;2023-03-04T02:55:46;1.10;99.90
23081;DHT22;11708;50.570;8.532;2023-03-04T02:58:12;1.20;99.90
23081;DHT22;11708;50.570;8.532;2023-03-04T03:00:38;1.20;99.90
23081;DHT22;11708;50.570;8.532;2023-03-04T03:03:04;1.20;99.90
23081;DHT22;11708;50.570;8.532;2023-03-04T03:05:31;1.20;99.90
23081;DHT22;11708;50.570;8.532;2023-03-04T03:07:57;1.20;99.90
23081;DHT22;11708;50.570;8.532;2023-03-04T03:10:23;1.30;99.90
23081;DHT22;11708;50.570;8.532;2023-03-04T03:12:49;1.30;99.90
23081;DHT22;11708;50.570;8.532;2023-03-04T03:15:15;1.30;99.90
23081;DHT22;11708;50.570;8.532;2023-03-04T03:17:40;1.30;99.90
23081;DHT22;11708;50.570;8.532;2023-03-04T03:20:07;1.30;99.90
23081;DHT22;11708;50.570;8.532;2023-03-04T03:22:33;1.30;99.90
23081;DHT22;11708;50.570;8.532;2023-03-04T03:24:58;1.30;99.90
23081;DHT22;11708;50.570;8.532;2023-03-04T03:27:24;1.30;99.90
23081;DHT22;11708;50.570;8.532;2023-03-04T03:29:49;1.30;99.90
23081;DHT22;11708;50.570;8.532;2023-03-04T03:32:15;1.30;99.90
23081;DHT22;11708;50.570;8.532;2023-03-04T03:34:40;1.40;99.90
23081;DHT22;11708;50.570;8.532;2023-03-04T03:37:06;1.40;99.90
23081;DHT22;11708;50.570;8.532;2023-03-04T03:39:31;1.40;99.90
23081;DHT22;11708;50.570;8.532;2023-03-04T03:41:57;1.40;99.90
23081;DHT22;11708;50.570;8.532;2023-03-04T03:44:22;1.50;99.90
23081;DHT22;11708;50.570;8.532;2023-03-04T03:46:48;1.40;99.90
23081;DHT22;11708;50.570;8.532;2023-03-04T03:49:13;1.40;99.90
23081;DHT22;11708;50.570;8.532;2023-03-04T03:51:41;1.50;99.90
23081;DHT22;11708;50.570;8.532;2023-03-04T03:54:07;1.50;99.90
23081;DHT22;11708;50.570;8.532;2023-03-04T03:56:32;1.50;99.90
23081;DHT22;11708;50.570;8.532;2023-03-04T03:58:58;1.50;99.90
23081;DHT22;11708;50.570;8.532;2023-03-04T04:01:24;1.50;99.90
23081;DHT22;11708;50.570;8.532;2023-03-04T04:03:50;1.50;99.90
23081;DHT22;11708;50.570;8.532;2023-03-04T04:06:15;1.30;99.90
23081;DHT22;11708;50.570;8.532;2023-03-04T04:08:41;1.50;99.90
23081;DHT22;11708;50.570;8.532;2023-03-04T04:11:09;1.60;99.90
23081;DHT22;11708;50.570;8.532;2023-03-04T04:13:35;1.60;99.90
23081;DHT22;11708;50.570;8.532;2023-03-04T04:16:00;1.30;99.90
23081;DHT22;11708;50.570;8.532;2023-03-04T04:18:26;1.50;99.90
23081;DHT22;11708;50.570;8.532;2023-03-04T04:20:52;1.60;99.90
23081;DHT22;11708;50.570;8.532;2023-03-04T04:23:18;1.50;99.90
23081;DHT22;11708;50.570;8.532;2023-03-04T04:25:44;1.60;99.90
23081;DHT22;11708;50.570;8.532;2023-03-04T04:28:09;1.60;99.90
23081;DHT22;11708;50.570;8.532;2023-03-04T04:30:35;1.60;99.90
23081;DHT22;11708;50.570;8.532;2023-03-04T04:33:01;1.60;99.90
23081;DHT22;11708;50.570;8.532;2023-03-04T04:35:30;1.60;99.90
23081;DHT22;11708;50.570;8.532;2023-03-04T04:37:55;1.60;99.90
23081;DHT22;11708;50.570;8.532;2023-03-04T04:40:21;1.60;99.90
23081;DHT22;11708;50.570;8.532;2023-03-04T04:42:47;1.60;99.90
23081;DHT22;11708;50.570;8.532;2023-03-04T04:45:12;1.60;99.90
23081;DHT22;11708;50.570;8.532;2023-03-04T04:47:38;1.60;99.90
23081;DHT22;11708;50.570;8.532;2023-03-04T04:50:04;1.60;99.90
23081;DHT22;11708;50.570;8.532;2023-03-04T04:52:29;1.70;99.90
23081;DHT22;11708;50.570;8.532;2023-03-04T04:54:55;1.70;99.90
23081;DHT22;11708;50.570;8.532;2023-03-04T04:57:21;1.70;99.90
23081;DHT22;11708;50.570;8.532;2023-03-04T04:59:46;1.70;99.90
23081;DHT22;11708;50.570;8.532;2023-03-04T05:02:12;1.70;99.90
23081;DHT22;11708;50.570;8.532;2023-03-04T05:04:38;1.70;99.90
23081;DHT22;11708;50.570;8.532;2023-03-04T05:07:04;1.70;99.90
23081;DHT22;11708;50.570;8.532;2023-03-04T05:09:29;1.80;99.90
23081;DHT22;11708;50.570;8.532;2023-03-04T05:11:55;1.70;99.90
23081;DHT22;11708;50.570;8.532;2023-03-04T05:14:20;1.70;99.90
23081;DHT22;11708;50.570;8.532;2023-03-04T05:16:46;1.80;99.90
23081;DHT22;11708;50.570;8.532;2023-03-04T05:19:11;1.80;99.90
23081;DHT22;11708;50.570;8.532;2023-03-04T05:21:37;1.80;99.90
23081;DHT22;11708;50.570;8.532;2023-03-04T05:24:02;1.80;99.90
23081;DHT22;11708;50.570;8.532;2023-03-04T05:26:28;1.80;99.90
23081;DHT22;11708;50.570;8.532;2023-03-04T05:28:53;1.80;99.90
23081;DHT22;11708;50.570;8.532;2023-03-04T05:31:19;1.80;99.90
23081;DHT22;11708;50.570;8.532;2023-03-04T05:33:44;1.80;99.90
23081;DHT22;11708;50.570;8.532;2023-03-04T05:36:10;3.10;99.90
23081;DHT22;11708;50.570;8.532;2023-03-04T05:38:35;1.80;99.90
23081;DHT22;11708;50.570;8.532;2023-03-04T05:41:04;1.90;99.90
23081;DHT22;11708;50.570;8.532;2023-03-04T05:43:31;1.90;99.90
23081;DHT22;11708;50.570;8.532;2023-03-04T05:45:58;2.00;99.90
23081;DHT22;11708;50.570;8.532;2023-03-04T05:48:24;1.90;99.90
23081;DHT22;11708;50.570;8.532;2023-03-04T05:50:56;1.90;99.90
23081;DHT22;11708;50.570;8.532;2023-03-04T05:53:23;1.90;99.90
23081;DHT22;11708;50.570;8.532;2023-03-04T05:55:49;2.00;99.90
23081;DHT22;11708;50.570;8.532;2023-03-04T05:58:15;2.00;99.90
23081;DHT22;11708;50.570;8.532;2023-03-04T06:00:41;2.00;99.90
23081;DHT22;11708;50.570;8.532;2023-03-04T06:03:21;2.00;99.90
23081;DHT22;11708;50.570;8.532;2023-03-04T06:05:47;2.10;99.90
23081;DHT22;11708;50.570;8.532;2023-03-04T06:08:12;2.10;99.90
23081;DHT22;11708;50.570;8.532;2023-03-04T06:10:39;2.10;99.90
23081;DHT22;11708;50.570;8.532;2023-03-04T06:13:06;2.10;99.90
23081;DHT22;11708;50.570;8.532;2023-03-04T06:15:31;2.10;99.90
23081;DHT22;11708;50.570;8.532;2023-03-04T06:17:57;2.10;99.90
23081;DHT22;11708;50.570;8.532;2023-03-04T06:20:22;2.10;99.90
23081;DHT22;11708;50.570;8.532;2023-03-04T06:22:48;2.10;99.90
23081;DHT22;11708;50.570;8.532;2023-03-04T06:25:14;2.20;99.90
23081;DHT22;11708;50.570;8.532;2023-03-04T06:27:39;2.20;99.90
23081;DHT22;11708;50.570;8.532;2023-03-04T06:30:05;2.20;99.90
23081;DHT22;11708;50.570;8.532;2023-03-04T06:32:31;2.20;99.90
23081;DHT22;11708;50.570;8.532;2023-03-04T06:34:57;2.20;99.90
23081;DHT22;11708;50.570;8.532;2023-03-04T06:37:22;2.30;99.90
23081;DHT22;11708;50.570;8.532;2023-03-04T06:39:48;2.30;99.90
23081;DHT22;11708;50.570;8.532;2023-03-04T06:42:14;2.30;99.90
23081;DHT22;11708;50.570;8.532;2023-03-04T06:44:39;2.40;99.90
23081;DHT22;11708;50.570;8.532;2023-03-04T06:47:05;2.40;99.90
23081;DHT22;11708;50.570;8.532;2023-03-04T06:49:31;2.40;99.90
23081;DHT22;11708;50.570;8.532;2023-03-04T06:51:56;2.50;99.90
23081;DHT22;11708;50.570;8.532;2023-03-04T06:54:22;2.50;99.90
23081;DHT22;11708;50.570;8.532;2023-03-04T06:56:47;2.50;99.90
23081;DHT22;11708;50.570;8.532;2023-03-04T06:59:13;2.50;99.90
23081;DHT22;11708;50.570;8.532;2023-03-04T07:01:39;2.60;99.90
23081;DHT22;11708;50.570;8.532;2023-03-04T07:04:04;2.60;99.90
23081;DHT22;11708;50.570;8.532;2023-03-04T07:06:30;2.70;99.90
23081;DHT22;11708;50.570;8.532;2023-03-04T07:08:57;2.70;99.90
23081;DHT22;11708;50.570;8.532;2023-03-04T07:11:23;2.80;99.90
23081;DHT22;11708;50.570;8.532;2023-03-04T07:13:49;2.80;99.90
23081;DHT22;11708;50.570;8.532;2023-03-04T07:16:19;2.60;99.90
23081;DHT22;11708;50.570;8.532;2023-03-04T07:18:45;2.90;99.90
23081;DHT22;11708;50.570;8.532;2023-03-04T07:21:12;2.90;99.90
23081;DHT22;11708;50.570;8.532;2023-03-04T07:23:38;2.90;99.90
23081;DHT22;11708;50.570;8.532;2023-03-04T07:26:04;2.90;99.90
23081;DHT22;11708;50.570;8.532;2023-03-04T07:28:30;3.00;99.90
23081;DHT22;11708;50.570;8.532;2023-03-04T07:30:56;3.00;99.90
23081;DHT22;11708;50.570;8.532;2023-03-04T07:33:21;3.10;99.90
23081;DHT22;11708;50.570;8.532;2023-03-04T07:35:47;3.10;99.90
23081;DHT22;11708;50.570;8.532;2023-03-04T07:38:13;3.20;99.90
23081;DHT22;11708;50.570;8.532;2023-03-04T07:40:38;3.20;99.90
23081;DHT22;11708;50.570;8.532;2023-03-04T07:43:04;3.30;99.90
23081;DHT22;11708;50.570;8.532;2023-03-04T07:45:30;3.40;99.90
23081;DHT22;11708;50.570;8.532;2023-03-04T07:47:57;3.40;99.90
23081;DHT22;11708;50.570;8.532;2023-03-04T07:50:23;3.50;99.90
23081;DHT22;11708;50.570;8.532;2023-03-04T07:52:48;3.50;99.90
23081;DHT22;11708;50.570;8.532;2023-03-04T07:55:17;3.60;99.90
23081;DHT22;11708;50.570;8.532;2023-03-04T07:57:46;3.60;99.90
23081;DHT22;11708;50.570;8.532;2023-03-04T08:00:14;3.70;99.90
23081;DHT22;11708;50.570;8.532;2023-03-04T08:02:40;3.70;99.90
23081;DHT22;11708;50.570;8.532;2023-03-04T08:05:06;3.80;99.90
23081;DHT22;11708;50.570;8.532;2023-03-04T08:07:32;3.80;99.90
23081;DHT22;11708;50.570;8.532;2023-03-04T08:09:58;3.80;99.90
23081;DHT22;11708;50.570;8.532;2023-03-04T08:12:24;3.90;99.90
23081;DHT22;11708;50.570;8.532;2023-03-04T08:14:50;3.90;99.90
23081;DHT22;11708;50.570;8.532;2023-03-04T08:17:16;4.00;99.90
23081;DHT22;11708;50.570;8.532;2023-03-04T08:19:42;4.00;99.90
23081;DHT22;11708;50.570;8.532;2023-03-04T08:22:07;4.00;99.90
23081;DHT22;11708;50.570;8.532;2023-03-04T08:24:33;4.10;99.90
23081;DHT22;11708;50.570;8.532;2023-03-04T08:26:59;4.20;99.90
23081;DHT22;11708;50.570;8.532;2023-03-04T08:29:25;4.20;99.90
23081;DHT22;11708;50.570;8.532;2023-03-04T08:31:52;4.20;99.90
23081;DHT22;11708;50.570;8.532;2023-03-04T08:34:20;4.20;99.90
23081;DHT22;11708;50.570;8.532;2023-03-04T08:36:46;4.30;99.90
23081;DHT22;11708;50.570;8.532;2023-03-04T08:39:13;4.30;99.90
23081;DHT22;11708;50.570;8.532;2023-03-04T08:41:39;4.30;99.90
23081;DHT22;11708;50.570;8.532;2023-03-04T08:44:05;4.40;99.90
23081;DHT22;11708;50.570;8.532;2023-03-04T08:46:33;4.40;99.90
23081;DHT22;11708;50.570;8.532;2023-03-04T08:48:58;4.50;99.90
23081;DHT22;11708;50.570;8.532;2023-03-04T08:51:24;4.50;99.90
23081;DHT22;11708;50.570;8.532;2023-03-04T08:53:50;4.60;99.90
23081;DHT22;11708;50.570;8.532;2023-03-04T08:56:16;4.40;99.90
23081;DHT22;11708;50.570;8.532;2023-03-04T08:58:41;4.60;99.90
23081;DHT22;11708;50.570;8.532;2023-03-04T09:01:11;4.70;99.90
23081;DHT22;11708;50.570;8.532;2023-03-04T09:03:38;4.70;99.90
23081;DHT22;11708;50.570;8.532;2023-03-04T09:06:04;4.70;99.90
23081;DHT22;11708;50.570;8.532;2023-03-04T09:08:30;4.80;99.90
23081;DHT22;11708;50.570;8.532;2023-03-04T09:10:56;4.90;99.90
23081;DHT22;11708;50.570;8.532;2023-03-04T09:13:23;5.00;99.90
23081;DHT22;11708;50.570;8.532;2023-03-04T09:15:50;5.00;99.90
23081;DHT22;11708;50.570;8.532;2023-03-04T09:18:18;5.10;99.90
23081;DHT22;11708;50.570;8.532;2023-03-04T09:20:44;5.10;99.90
23081;DHT22;11708;50.570;8.532;2023-03-04T09:23:11;5.10;99.90
23081;DHT22;11708;50.570;8.532;2023-03-04T09:25:37;5.20;99.90
23081;DHT22;11708;50.570;8.532;2023-03-04T09:28:03;5.20;99.90
23081;DHT22;11708;50.570;8.532;2023-03-04T09:30:29;5.20;99.90
23081;DHT22;11708;50.570;8.532;2023-03-04T09:32:55;5.20;99.90
23081;DHT22;11708;50.570;8.532;2023-03-04T09:35:21;5.30;99.90
23081;DHT22;11708;50.570;8.532;2023-03-04T09:37:47;5.30;99.90
23081;DHT22;11708;50.570;8.532;2023-03-04T09:40:19;5.30;99.90
23081;DHT22;11708;50.570;8.532;2023-03-04T09:42:49;5.40;99.90
23081;DHT22;11708;50.570;8.532;2023-03-04T09:45:19;5.40;99.90
23081;DHT22;11708;50.570;8.532;2023-03-04T09:47:45;5.40;99.90
23081;DHT22;11708;50.570;8.532;2023-03-04T09:50:12;5.40;99.90
23081;DHT22;11708;50.570;8.532;2023-03-04T09:53:17;5.40;99.90
23081;DHT22;11708;50.570;8.532;2023-03-04T09:55:49;5.50;99.90
23081;DHT22;11708;50.570;8.532;2023-03-04T09:58:26;5.50;99.90
23081;DHT22;11708;50.570;8.532;2023-03-04T10:01:22;5.50;99.90
23081;DHT22;11708;50.570;8.532;2023-03-04T10:04:02;5.50;99.90
23081;DHT22;11708;50.570;8.532;2023-03-04T10:06:31;5.50;99.90
23081;DHT22;11708;50.570;8.532;2023-03-04T10:09:04;5.60;99.90
23081;DHT22;11708;50.570;8.532;2023-03-04T10:12:03;5.60;99.90
23081;DHT22;11708;50.570;8.532;2023-03-04T10:17:35;5.70;99.90
23081;DHT22;11708;50.570;8.532;2023-03-04T10:20:18;5.80;99.90
23081;DHT22;11708;50.570;8.532;2023-03-04T10:22:55;5.80;99.90
23081;DHT22;11708;50.570;8.532;2023-03-04T10:25:30;5.90;99.90
23081;DHT22;11708;50.570;8.532;2023-03-04T10:33:20;6.00;99.90
23081;DHT22;11708;50.570;8.532;2023-03-04T10:38:36;6.10;99.90
23081;DHT22;11708;50.570;8.532;2023-03-04T10:43:38;6.10;99.90
23081;DHT22;11708;50.570;8.532;2023-03-04T10:46:04;6.00;99.90
23081;DHT22;11708;50.570;8.532;2023-03-04T10:48:31;6.20;99.90
23081;DHT22;11708;50.570;8.532;2023-03-04T10:51:17;6.30;99.90
23081;DHT22;11708;50.570;8.532;2023-03-04T10:53:43;6.20;99.90
23081;DHT22;11708;50.570;8.532;2023-03-04T10:56:38;6.20;99.90
23081;DHT22;11708;50.570;8.532;2023-03-04T10:59:28;6.30;99.90
23081;DHT22;11708;50.570;8.532;2023-03-04T11:01:56;6.50;99.90
23081;DHT22;11708;50.570;8.532;2023-03-04T11:04:26;6.60;99.90
23081;DHT22;11708;50.570;8.532;2023-03-04T11:06:53;6.60;99.90
23081;DHT22;11708;50.570;8.532;2023-03-04T11:09:30;6.60;99.90
23081;DHT22;11708;50.570;8.532;2023-03-04T11:12:00;6.60;99.90
23081;DHT22;11708;50.570;8.532;2023-03-04T11:15:02;6.60;99.90
23081;DHT22;11708;50.570;8.532;2023-03-04T11:17:26;6.60;99.90
23081;DHT22;11708;50.570;8.532;2023-03-04T11:20:10;6.60;99.90
23081;DHT22;11708;50.570;8.532;2023-03-04T11:22:36;6.70;99.90
23081;DHT22;11708;50.570;8.532;2023-03-04T11:25:11;6.80;99.90
23081;DHT22;11708;50.570;8.532;2023-03-04T11:27:45;6.90;99.90
23081;DHT22;11708;50.570;8.532;2023-03-04T11:36:30;7.10;99.90
23081;DHT22;11708;50.570;8.532;2023-03-04T11:38:57;7.20;99.90
23081;DHT22;11708;50.570;8.532;2023-03-04T11:41:31;7.20;99.90
23081;DHT22;11708;50.570;8.532;2023-03-04T11:43:58;7.20;99.90
23081;DHT22;11708;50.570;8.532;2023-03-04T11:46:36;7.30;99.90
23081;DHT22;11708;50.570;8.532;2023-03-04T12:03:40;7.60;99.90
23081;DHT22;11708;50.570;8.532;2023-03-04T12:18:04;7.80;99.90
23081;DHT22;11708;50.570;8.532;2023-03-04T12:26:06;7.80;99.90
23081;DHT22;11708;50.570;8.532;2023-03-04T12:28:44;7.90;99.90
23081;DHT22;11708;50.570;8.532;2023-03-04T12:31:40;7.90;99.90
23081;DHT22;11708;50.570;8.532;2023-03-04T12:39:31;8.10;99.90
23081;DHT22;11708;50.570;8.532;2023-03-04T12:42:03;8.10;99.90
23081;DHT22;11708;50.570;8.532;2023-03-04T12:47:58;8.10;99.90
23081;DHT22;11708;50.570;8.532;2023-03-04T12:50:35;8.20;99.90
23081;DHT22;11708;50.570;8.532;2023-03-04T12:55:54;8.30;99.90
23081;DHT22;11708;50.570;8.532;2023-03-04T12:58:25;8.30;99.90
23081;DHT22;11708;50.570;8.532;2023-03-04T13:01:06;8.30;99.90
23081;DHT22;11708;50.570;8.532;2023-03-04T13:03:54;8.40;99.90
23081;DHT22;11708;50.570;8.532;2023-03-04T13:09:23;8.50;99.90
23081;DHT22;11708;50.570;8.532;2023-03-04T13:12:01;8.60;99.90
23081;DHT22;11708;50.570;8.532;2023-03-04T13:14:29;8.70;99.90
23081;DHT22;11708;50.570;8.532;2023-03-04T13:16:58;8.60;99.90
23081;DHT22;11708;50.570;8.532;2023-03-04T13:19:47;8.70;99.90
23081;DHT22;11708;50.570;8.532;2023-03-04T13:22:31;8.70;99.90
23081;DHT22;11708;50.570;8.532;2023-03-04T13:24:58;8.70;99.90
23081;DHT22;11708;50.570;8.532;2023-03-04T13:41:21;8.40;99.90
23081;DHT22;11708;50.570;8.532;2023-03-04T13:43:49;8.30;99.90
23081;DHT22;11708;50.570;8.532;2023-03-04T13:53:55;8.10;99.90
23081;DHT22;11708;50.570;8.532;2023-03-04T14:01:50;8.00;99.90
23081;DHT22;11708;50.570;8.532;2023-03-04T14:04:30;8.00;99.90
23081;DHT22;11708;50.570;8.532;2023-03-04T14:06:58;7.90;99.90
23081;DHT22;11708;50.570;8.532;2023-03-04T14:09:27;7.90;99.90
23081;DHT22;11708;50.570;8.532;2023-03-04T14:11:58;7.90;99.90
23081;DHT22;11708;50.570;8.532;2023-03-04T14:14:30;7.80;99.90
23081;DHT22;11708;50.570;8.532;2023-03-04T14:16:59;7.80;99.90
23081;DHT22;11708;50.570;8.532;2023-03-04T14:21:51;7.80;99.90
23081;DHT22;11708;50.570;8.532;2023-03-04T14:24:19;7.80;99.90
23081;DHT22;11708;50.570;8.532;2023-03-04T14:26:45;7.80;99.90
23081;DHT22;11708;50.570;8.532;2023-03-04T14:29:27;7.70;99.90
23081;DHT22;11708;50.570;8.532;2023-03-04T14:31:57;7.80;99.90
23081;DHT22;11708;50.570;8.532;2023-03-04T14:34:34;7.80;99.90
23081;DHT22;11708;50.570;8.532;2023-03-04T14:37:02;7.70;99.90
23081;DHT22;11708;50.570;8.532;2023-03-04T14:39:30;7.60;99.90
23081;DHT22;11708;50.570;8.532;2023-03-04T14:42:00;7.60;99.90
23081;DHT22;11708;50.570;8.532;2023-03-04T14:47:29;7.50;99.90
23081;DHT22;11708;50.570;8.532;2023-03-04T14:49:57;7.50;99.90
23081;DHT22;11708;50.570;8.532;2023-03-04T14:52:38;7.50;99.90
23081;DHT22;11708;50.570;8.532;2023-03-04T14:57:38;7.50;99.90
23081;DHT22;11708;50.570;8.532;2023-03-04T15:02:58;8.50;99.90
23081;DHT22;11708;50.570;8.532;2023-03-04T15:05:28;7.60;99.90
23081;DHT22;11708;50.570;8.532;2023-03-04T15:07:59;7.50;99.90
23081;DHT22;11708;50.570;8.532;2023-03-04T15:10:34;7.50;99.90
23081;DHT22;11708;50.570;8.532;2023-03-04T15:13:06;7.50;99.90
23081;DHT22;11708;50.570;8.532;2023-03-04T15:15:36;7.50;99.90
23081;DHT22;11708;50.570;8.532;2023-03-04T15:18:16;7.50;99.90
23081;DHT22;11708;50.570;8.532;2023-03-04T15:20:58;7.50;99.90
23081;DHT22;11708;50.570;8.532;2023-03-04T15:23:25;7.50;99.90
23081;DHT22;11708;50.570;8.532;2023-03-04T15:25:53;7.60;99.90
23081;DHT22;11708;50.570;8.532;2023-03-04T15:28:19;7.60;99.90
23081;DHT22;11708;50.570;8.532;2023-03-04T15:30:45;7.60;99.90
23081;DHT22;11708;50.570;8.532;2023-03-04T15:33:13;7.60;99.90
23081;DHT22;11708;50.570;8.532;2023-03-04T15:35:39;7.50;99.90
23081;DHT22;11708;50.570;8.532;2023-03-04T15:38:07;7.50;99.90
23081;DHT22;11708;50.570;8.532;2023-03-04T15:40:35;7.50;99.90
23081;DHT22;11708;50.570;8.532;2023-03-04T15:43:05;7.50;99.90
23081;DHT22;11708;50.570;8.532;2023-03-04T15:45:33;7.40;99.90
23081;DHT22;11708;50.570;8.532;2023-03-04T15:48:04;7.30;99.90
23081;DHT22;11708;50.570;8.532;2023-03-04T15:50:36;7.30;99.90
23081;DHT22;11708;50.570;8.532;2023-03-04T15:56:00;7.30;99.90
23081;DHT22;11708;50.570;8.532;2023-03-04T15:58:27;7.20;99.90
23081;DHT22;11708;50.570;8.532;2023-03-04T16:00:53;7.20;99.90
23081;DHT22;11708;50.570;8.532;2023-03-04T16:03:20;7.20;99.90
23081;DHT22;11708;50.570;8.532;2023-03-04T16:05:49;7.20;99.90
23081;DHT22;11708;50.570;8.532;2023-03-04T16:08:18;7.20;99.90
23081;DHT22;11708;50.570;8.532;2023-03-04T16:10:46;7.20;99.90
23081;DHT22;11708;50.570;8.532;2023-03-04T16:13:14;7.20;99.90
23081;DHT22;11708;50.570;8.532;2023-03-04T16:15:40;7.20;99.90
23081;DHT22;11708;50.570;8.532;2023-03-04T16:18:08;7.10;99.90
23081;DHT22;11708;50.570;8.532;2023-03-04T16:20:34;7.10;99.90
23081;DHT22;11708;50.570;8.532;2023-03-04T16:23:02;7.00;99.90
23081;DHT22;11708;50.570;8.532;2023-03-04T16:25:29;7.00;99.90
23081;DHT22;11708;50.570;8.532;2023-03-04T16:27:56;7.00;99.90
23081;DHT22;11708;50.570;8.532;2023-03-04T16:30:25;7.00;99.90
23081;DHT22;11708;50.570;8.532;2023-03-04T16:32:50;7.00;99.90
23081;DHT22;11708;50.570;8.532;2023-03-04T16:35:17;7.00;99.90
23081;DHT22;11708;50.570;8.532;2023-03-04T16:37:44;6.90;99.90
23081;DHT22;11708;50.570;8.532;2023-03-04T16:40:12;6.90;99.90
23081;DHT22;11708;50.570;8.532;2023-03-04T16:42:39;6.90;99.90
23081;DHT22;11708;50.570;8.532;2023-03-04T16:45:06;6.90;99.90
23081;DHT22;11708;50.570;8.532;2023-03-04T16:47:32;6.90;99.90
23081;DHT22;11708;50.570;8.532;2023-03-04T16:49:58;6.80;99.90
23081;DHT22;11708;50.570;8.532;2023-03-04T16:52:28;6.80;99.90
23081;DHT22;11708;50.570;8.532;2023-03-04T16:54:54;6.80;99.90
23081;DHT22;11708;50.570;8.532;2023-03-04T16:57:20;6.80;99.90
23081;DHT22;11708;50.570;8.532;2023-03-04T16:59:46;6.80;99.90
23081;DHT22;11708;50.570;8.532;2023-03-04T17:02:20;6.80;99.90
23081;DHT22;11708;50.570;8.532;2023-03-04T17:04:48;6.80;99.90
23081;DHT22;11708;50.570;8.532;2023-03-04T17:07:14;6.80;99.90
23081;DHT22;11708;50.570;8.532;2023-03-04T17:09:40;6.70;99.90
23081;DHT22;11708;50.570;8.532;2023-03-04T17:12:07;6.70;99.90
23081;DHT22;11708;50.570;8.532;2023-03-04T17:14:33;6.60;99.90
23081;DHT22;11708;50.570;8.532;2023-03-04T17:17:00;7.20;99.90
23081;DHT22;11708;50.570;8.532;2023-03-04T17:19:26;6.60;99.90
23081;DHT22;11708;50.570;8.532;2023-03-04T17:21:52;6.50;99.90
23081;DHT22;11708;50.570;8.532;2023-03-04T17:24:17;6.50;99.90
23081;DHT22;11708;50.570;8.532;2023-03-04T17:26:43;6.40;99.90
23081;DHT22;11708;50.570;8.532;2023-03-04T17:29:08;6.30;99.90
23081;DHT22;11708;50.570;8.532;2023-03-04T17:31:35;6.20;99.90
23081;DHT22;11708;50.570;8.532;2023-03-04T17:34:01;6.20;99.90
23081;DHT22;11708;50.570;8.532;2023-03-04T17:36:27;6.10;99.90
23081;DHT22;11708;50.570;8.532;2023-03-04T17:38:52;6.10;99.90
23081;DHT22;11708;50.570;8.532;2023-03-04T17:41:19;6.10;99.90